createdAt,value
2018-07-11T00:01:50.489Z,72.62
2018-07-11T00:06:54.538Z,73.29
2018-07-11T00:11:57.649Z,73.49
2018-07-11T00:17:01.009Z,74.80
2018-07-11T00:22:04.268Z,75.63
2018-07-11T00:27:07.491Z,75.13
2018-07-11T00:32:10.661Z,76.33
2018-07-11T00:37:13.939Z,76.49
2018-07-11T00:42:17.144Z,78.19
2018-07-11T00:47:20.422Z,78.54
2018-07-11T00:52:23.624Z,79.15
2018-07-11T00:57:26.876Z,80.07
2018-07-11T01:02:30.370Z,80.36
2018-07-11T01:07:34.599Z,80.55
2018-07-11T01:12:37.822Z,81.67
2018-07-11T01:17:41.820Z,82.21
2018-07-11T01:22:45.220Z,82.36
2018-07-11T01:27:48.493Z,82.55
2018-07-11T01:32:51.674Z,83.75
2018-07-11T01:37:54.846Z,83.72
2018-07-11T01:42:58.056Z,84.23
2018-07-11T01:48:01.289Z,84.14
2018-07-11T01:53:04.479Z,84.14
2018-07-11T01:58:07.702Z,84.45
2018-07-11T02:03:10.893Z,84.85
2018-07-11T02:08:14.100Z,84.86
2018-07-11T02:13:17.818Z,84.65
2018-07-11T02:18:23.877Z,84.52
2018-07-11T02:23:36.020Z,84.52
2018-07-11T02:28:39.371Z,84.22
2018-07-11T02:33:42.664Z,83.87
2018-07-11T02:38:45.837Z,83.59
2018-07-11T02:43:49.068Z,84.36
2018-07-11T02:48:52.296Z,84.51
2018-07-11T02:53:55.577Z,84.62
2018-07-11T02:58:58.875Z,84.87
2018-07-11T03:04:02.120Z,84.80
2018-07-11T03:09:05.547Z,85.82
2018-07-11T03:14:08.763Z,86.04
2018-07-11T03:19:11.875Z,86.25
2018-07-11T03:24:16.302Z,85.87
2018-07-11T03:29:19.627Z,85.96
2018-07-11T03:34:22.892Z,84.89
2018-07-11T03:39:26.154Z,83.79
2018-07-11T03:44:29.337Z,83.03
2018-07-11T03:49:32.444Z,82.72
2018-07-11T03:54:35.579Z,82.68
2018-07-11T03:59:38.723Z,81.70
2018-07-11T04:04:41.982Z,81.04
2018-07-11T04:09:45.473Z,78.86
2018-07-11T04:14:48.702Z,76.96
2018-07-11T04:19:51.841Z,75.01
2018-07-11T04:24:55.120Z,73.41
2018-07-11T04:29:58.262Z,73.18
2018-07-11T04:35:01.403Z,73.69
2018-07-11T04:40:04.607Z,71.34
2018-07-11T04:45:09.195Z,71.15
2018-07-11T04:50:12.738Z,67.92
2018-07-11T04:55:16.087Z,65.71
2018-07-11T05:00:19.352Z,64.31
2018-07-11T05:05:25.428Z,64.89
2018-07-11T05:10:28.579Z,64.66
2018-07-11T05:15:31.748Z,65.72
2018-07-11T05:20:34.890Z,67.15
2018-07-11T05:25:38.073Z,66.77
2018-07-11T05:30:41.226Z,65.75
2018-07-11T05:35:44.434Z,64.95
2018-07-11T05:40:49.851Z,62.76
2018-07-11T05:45:53.583Z,60.51
2018-07-11T05:50:56.713Z,49.17
2018-07-11T05:55:59.861Z,34.42
2018-07-11T06:01:03.054Z,29.42
2018-07-11T06:06:06.424Z,28.69
2018-07-11T06:11:15.935Z,28.66
2018-07-11T06:16:19.157Z,27.76
2018-07-11T06:21:23.305Z,30.70
2018-07-11T06:26:26.449Z,32.66
2018-07-11T06:31:29.559Z,34.54
2018-07-11T06:36:32.695Z,33.59
2018-07-11T06:41:35.895Z,32.06
2018-07-11T06:46:39.063Z,36.13
2018-07-11T06:51:42.241Z,36.71
2018-07-11T06:56:45.485Z,37.11
2018-07-11T07:01:48.759Z,27.66
2018-07-11T07:06:51.950Z,29.76
2018-07-11T07:11:55.165Z,28.46
2018-07-11T07:16:58.301Z,31.19
2018-07-11T07:22:02.283Z,29.00
2018-07-11T07:27:05.451Z,33.60
2018-07-11T07:32:08.629Z,36.50
2018-07-11T07:37:11.824Z,38.15
2018-07-11T07:42:15.488Z,41.92
2018-07-11T07:47:19.300Z,38.14
2018-07-11T07:52:22.602Z,38.64
2018-07-11T07:57:26.763Z,43.42
2018-07-11T08:02:29.965Z,43.13
2018-07-11T08:07:33.575Z,45.09
2018-07-11T08:12:36.921Z,47.65
2018-07-11T08:17:40.049Z,50.14
2018-07-11T08:23:19.596Z,49.42
2018-07-11T08:29:31.691Z,47.60
2018-07-11T08:35:22.470Z,46.23
2018-07-11T08:40:41.567Z,44.14
2018-07-11T08:48:02.782Z,43.53
2018-07-11T08:53:40.595Z,42.97
2018-07-11T08:59:08.612Z,42.31
2018-07-11T09:04:22.658Z,43.56
2018-07-11T09:11:41.550Z,43.75
2018-07-11T09:17:02.779Z,45.01
2018-07-11T09:23:33.860Z,43.71
2018-07-11T09:28:37.049Z,39.71
2018-07-11T09:33:40.249Z,39.36
2018-07-11T09:38:43.389Z,38.93
2018-07-11T09:43:46.592Z,40.44
2018-07-11T09:48:49.860Z,38.66
2018-07-11T09:53:53.077Z,39.37
2018-07-11T09:58:57.561Z,39.22
2018-07-11T10:04:01.583Z,38.55
2018-07-11T10:09:04.799Z,37.07
2018-07-11T10:14:08.094Z,36.77
2018-07-11T10:19:11.214Z,37.76
2018-07-11T10:24:15.386Z,31.63
2018-07-11T10:29:18.642Z,31.80
2018-07-11T10:34:21.846Z,32.96
2018-07-11T10:39:24.980Z,30.89
2018-07-11T10:44:28.148Z,30.98
2018-07-11T10:49:31.398Z,31.59
2018-07-11T10:54:34.531Z,31.66
2018-07-11T10:59:37.939Z,34.56
2018-07-11T11:04:41.087Z,32.45
2018-07-11T11:09:44.716Z,31.46
2018-07-11T11:14:48.044Z,33.29
2018-07-11T11:19:51.180Z,29.66
2018-07-11T11:24:54.375Z,31.63
2018-07-11T11:29:57.486Z,30.33
2018-07-11T11:35:00.738Z,32.00
2018-07-11T11:40:03.945Z,34.81
2018-07-11T11:45:07.152Z,39.80
2018-07-11T11:50:10.401Z,37.05
2018-07-11T11:55:13.520Z,37.07
2018-07-11T12:00:16.739Z,38.28
2018-07-11T12:05:20.017Z,35.86
2018-07-11T12:10:23.206Z,36.47
2018-07-11T12:15:26.305Z,37.64
2018-07-11T12:20:29.489Z,37.03
2018-07-11T12:25:32.800Z,40.60
2018-07-11T12:30:35.951Z,38.77
2018-07-11T12:35:39.161Z,39.76
2018-07-11T12:40:44.634Z,41.03
2018-07-11T12:45:47.840Z,42.58
2018-07-11T12:50:51.118Z,46.42
2018-07-11T12:55:54.390Z,50.42
2018-07-11T13:00:57.598Z,57.02
2018-07-11T13:06:01.254Z,54.10
2018-07-11T13:11:04.438Z,52.95
2018-07-11T13:16:07.681Z,51.04
2018-07-11T13:21:10.768Z,48.60
2018-07-11T13:26:14.040Z,44.67
2018-07-11T13:31:17.346Z,43.46
2018-07-11T13:36:20.595Z,41.12
2018-07-11T13:41:23.825Z,39.14
2018-07-11T13:46:27.241Z,32.43
2018-07-11T13:51:30.371Z,34.09
2018-07-11T13:56:33.540Z,29.29
2018-07-11T14:01:36.872Z,28.00
2018-07-11T14:06:40.145Z,26.67
2018-07-11T14:11:43.440Z,28.13
2018-07-11T14:16:47.065Z,27.35
2018-07-11T14:21:51.037Z,25.63
2018-07-11T14:26:54.491Z,27.34
2018-07-11T14:31:58.424Z,27.17
2018-07-11T14:37:02.481Z,27.83
2018-07-11T14:42:05.698Z,27.68
2018-07-11T14:47:09.281Z,27.67
2018-07-11T14:52:12.672Z,29.20
2018-07-11T14:57:16.064Z,29.32
2018-07-11T15:02:19.315Z,30.25
2018-07-11T15:07:22.526Z,31.88
2018-07-11T15:12:25.744Z,33.98
2018-07-11T15:17:29.900Z,36.52
2018-07-11T15:22:33.104Z,36.24
2018-07-11T15:27:36.449Z,35.51
2018-07-11T15:32:40.287Z,38.17
2018-07-11T15:37:43.483Z,40.09
2018-07-11T15:42:48.116Z,41.03
2018-07-11T15:47:51.764Z,40.64
2018-07-11T15:52:54.941Z,40.98
2018-07-11T15:58:02.723Z,43.10
2018-07-11T16:03:06.229Z,45.18
2018-07-11T16:08:09.444Z,43.46
2018-07-11T16:13:12.675Z,39.79
2018-07-11T16:18:15.895Z,37.19
2018-07-11T16:23:19.129Z,34.94
2018-07-11T16:28:22.417Z,37.52
2018-07-11T16:33:26.066Z,37.93
2018-07-11T16:38:30.137Z,39.13
2018-07-11T16:43:33.390Z,39.44
2018-07-11T16:48:36.506Z,41.85
2018-07-11T16:53:39.749Z,41.65
2018-07-11T16:58:47.701Z,40.20
2018-07-11T17:03:50.954Z,39.39
2018-07-11T17:08:54.602Z,40.08
2018-07-11T17:13:57.783Z,40.60
2018-07-11T17:19:03.991Z,41.86
2018-07-11T17:24:07.373Z,42.66
2018-07-11T17:29:22.268Z,45.81
2018-07-11T17:34:25.561Z,46.34
2018-07-11T17:39:43.813Z,44.60
2018-07-11T17:44:47.682Z,42.22
2018-07-11T17:49:56.098Z,41.17
2018-07-11T17:55:04.895Z,39.88
2018-07-11T18:00:08.016Z,38.93
2018-07-11T18:05:22.105Z,37.27
2018-07-11T18:10:41.624Z,38.21
2018-07-11T18:16:49.298Z,39.13
2018-07-11T18:26:10.197Z,38.27
2018-07-11T18:32:25.285Z,41.27
2018-07-11T18:38:12.569Z,40.64
2018-07-11T18:45:46.575Z,40.57
2018-07-11T18:51:02.932Z,42.83
2018-07-11T18:56:12.890Z,42.54
2018-07-11T19:01:32.497Z,45.11
2018-07-11T19:06:47.772Z,46.45
2018-07-11T19:11:53.925Z,46.44
2018-07-11T19:17:06.150Z,46.98
2018-07-11T19:24:29.054Z,47.38
2018-07-11T19:30:43.243Z,47.81
2018-07-11T19:36:11.180Z,55.76
2018-07-11T19:41:17.454Z,62.10
2018-07-11T19:48:32.627Z,65.36
2018-07-11T19:53:52.318Z,70.50
2018-07-11T19:58:59.369Z,71.10
2018-07-11T20:04:03.937Z,74.48
2018-07-11T20:09:08.671Z,74.43
2018-07-11T20:14:12.674Z,74.73
2018-07-11T20:19:16.203Z,75.88
2018-07-11T20:24:19.861Z,75.96
2018-07-11T20:29:23.398Z,76.04
2018-07-11T20:34:26.649Z,79.88
2018-07-11T20:39:29.857Z,81.69
2018-07-11T20:44:33.492Z,84.10
2018-07-11T20:49:36.614Z,85.89
2018-07-11T20:54:39.884Z,86.26
2018-07-11T20:59:54.139Z,86.05
2018-07-11T21:09:17.444Z,86.78
2018-07-11T21:16:33.748Z,87.25
2018-07-11T21:21:37.036Z,86.26
2018-07-11T21:26:40.199Z,86.27
2018-07-11T21:31:43.341Z,86.57
2018-07-11T21:36:46.493Z,87.21
2018-07-11T21:41:49.645Z,87.26
2018-07-11T21:46:53.138Z,87.29
2018-07-11T21:51:56.418Z,85.83
2018-07-11T21:56:59.492Z,86.20
2018-07-11T22:02:02.657Z,86.62
2018-07-11T22:07:05.795Z,86.94
2018-07-11T22:12:09.033Z,86.93
2018-07-11T22:17:23.607Z,87.79
2018-07-11T22:22:25.565Z,88.54
2018-07-11T22:27:27.529Z,89.61
2018-07-11T22:32:29.500Z,90.41
2018-07-11T22:37:31.438Z,89.05
2018-07-11T22:42:33.484Z,89.21
2018-07-11T22:47:35.416Z,89.16
2018-07-11T22:52:37.418Z,89.50
2018-07-11T22:57:39.281Z,88.42
2018-07-11T23:02:41.260Z,89.88
2018-07-11T23:07:43.162Z,88.49
2018-07-11T23:12:45.139Z,89.20
2018-07-11T23:17:47.109Z,89.70
2018-07-11T23:22:49.041Z,89.70
2018-07-11T23:27:51.203Z,90.58
2018-07-11T23:32:53.110Z,90.62
2018-07-11T23:37:55.069Z,91.12
2018-07-11T23:42:57.027Z,90.85
2018-07-11T23:47:59.007Z,91.71
2018-07-11T23:53:00.950Z,91.45
2018-07-11T23:58:02.889Z,91.11
